createdAt,value
2022-12-23T00:01:54.518Z,15.32
2022-12-23T00:06:56.337Z,18.38
2022-12-23T00:12:18.285Z,14.95
2022-12-23T00:17:23.503Z,16.50
2022-12-23T00:22:45.244Z,16.23
2022-12-23T00:28:01.344Z,14.20
2022-12-23T00:33:03.390Z,13.68
2022-12-23T00:38:05.103Z,13.38
2022-12-23T00:43:06.817Z,14.13
2022-12-23T00:48:27.274Z,16.42
2022-12-23T00:53:29.137Z,16.40
2022-12-23T00:58:31.940Z,17.20
2022-12-23T01:03:52.438Z,16.15
2022-12-23T01:08:54.176Z,13.25
2022-12-23T01:13:55.978Z,16.48
2022-12-23T01:18:58.886Z,14.90
2022-12-23T01:24:00.673Z,14.70
2022-12-23T01:29:02.664Z,16.27
2022-12-23T01:34:04.391Z,15.82
2022-12-23T01:39:06.115Z,16.00
2022-12-23T01:44:45.363Z,11.30
2022-12-23T01:49:49.298Z,10.68
2022-12-23T01:54:51.764Z,11.10
2022-12-23T02:00:12.405Z,10.52
2022-12-23T02:05:14.527Z,9.48
2022-12-23T02:10:16.669Z,9.75
2022-12-23T02:15:40.107Z,11.63
2022-12-23T02:21:18.553Z,13.75
2022-12-23T02:26:39.042Z,12.43
2022-12-23T02:32:01.906Z,11.52
2022-12-23T02:37:30.114Z,10.23
2022-12-23T02:42:57.426Z,8.13
2022-12-23T02:48:18.784Z,8.27
2022-12-23T02:53:33.244Z,8.80
2022-12-23T03:03:41.604Z,8.75
2022-12-23T03:08:45.181Z,8.15
2022-12-23T03:14:15.032Z,8.67
2022-12-23T03:19:19.834Z,8.10
2022-12-23T03:24:31.992Z,9.18
2022-12-23T03:29:47.207Z,8.32
2022-12-23T03:34:52.734Z,10.45
2022-12-23T03:40:26.185Z,8.93
2022-12-23T03:45:40.772Z,9.48
2022-12-23T03:50:46.160Z,8.00
2022-12-23T03:55:54.072Z,7.20
2022-12-23T04:01:17.980Z,3.38
2022-12-23T04:06:21.589Z,2.63
2022-12-23T04:11:23.654Z,2.80
2022-12-23T04:16:25.798Z,2.78
2022-12-23T04:21:27.524Z,3.03
2022-12-23T04:26:29.204Z,3.15
2022-12-23T04:31:32.032Z,3.03
2022-12-23T04:36:33.793Z,4.00
2022-12-23T04:41:35.421Z,3.50
2022-12-23T04:46:37.242Z,2.85
2022-12-23T04:51:39.054Z,2.70
2022-12-23T04:56:40.803Z,3.17
2022-12-23T05:01:42.750Z,3.33
2022-12-23T05:06:44.795Z,3.63
2022-12-23T05:11:46.581Z,3.70
2022-12-23T05:16:48.402Z,3.88
2022-12-23T05:21:50.204Z,3.53
2022-12-23T05:26:59.484Z,3.72
2022-12-23T05:32:02.022Z,3.85
2022-12-23T05:37:03.813Z,3.88
2022-12-23T05:42:05.893Z,3.65
2022-12-23T05:47:07.540Z,3.70
2022-12-23T05:52:09.256Z,3.15
2022-12-23T05:57:10.915Z,2.65
2022-12-23T06:02:12.720Z,2.67
2022-12-23T06:07:14.588Z,2.03
2022-12-23T06:12:16.455Z,2.10
2022-12-23T06:17:18.222Z,2.30
2022-12-23T06:22:21.747Z,2.10
2022-12-23T06:27:23.445Z,2.10
2022-12-23T06:32:25.219Z,2.25
2022-12-23T06:37:27.074Z,1.98
2022-12-23T06:42:28.801Z,1.77
2022-12-23T06:47:30.582Z,2.20
2022-12-23T06:52:32.273Z,2.40
2022-12-23T06:57:33.957Z,5.03
2022-12-23T07:02:35.909Z,8.45
2022-12-23T07:07:37.870Z,3.67
2022-12-23T07:12:41.011Z,3.65
2022-12-23T07:17:45.225Z,4.03
2022-12-23T07:22:46.922Z,4.95
2022-12-23T07:27:48.738Z,5.05
2022-12-23T07:32:51.044Z,7.75
2022-12-23T07:37:54.968Z,5.53
2022-12-23T07:42:58.826Z,6.80
2022-12-23T07:48:01.695Z,6.00
2022-12-23T07:53:03.435Z,5.97
2022-12-23T07:58:05.076Z,5.72
2022-12-23T08:03:06.877Z,6.32
2022-12-23T08:08:08.703Z,5.50
2022-12-23T08:13:10.432Z,6.55
2022-12-23T08:18:12.125Z,6.03
2022-12-23T08:23:13.919Z,6.88
2022-12-23T08:28:15.678Z,6.72
2022-12-23T08:33:17.367Z,7.32
2022-12-23T08:38:19.078Z,7.80
2022-12-23T08:43:20.828Z,9.18
2022-12-23T08:48:22.546Z,7.80
2022-12-23T08:53:24.229Z,10.95
2022-12-23T08:58:25.921Z,8.25
2022-12-23T09:03:27.776Z,8.93
2022-12-23T09:08:29.863Z,7.60
2022-12-23T09:13:35.643Z,6.43
2022-12-23T09:18:38.095Z,6.05
2022-12-23T09:23:40.359Z,5.78
2022-12-23T09:28:42.147Z,4.95
2022-12-23T09:33:48.075Z,4.53
2022-12-23T09:38:57.750Z,9.45
2022-12-23T09:44:20.634Z,4.68
2022-12-23T09:49:23.868Z,5.20
2022-12-23T09:54:31.743Z,4.32
2022-12-23T10:00:01.407Z,3.72
2022-12-23T10:05:28.235Z,4.68
2022-12-23T10:10:42.670Z,4.13
2022-12-23T10:20:53.896Z,3.13
2022-12-23T10:25:55.729Z,4.32
2022-12-23T10:36:48.838Z,3.85
2022-12-23T10:42:11.045Z,3.30
2022-12-23T10:47:57.359Z,2.78
2022-12-23T10:53:03.340Z,3.50
2022-12-23T10:58:19.413Z,5.60
2022-12-23T11:03:27.539Z,7.22
2022-12-23T11:08:31.202Z,6.85
2022-12-23T11:13:43.547Z,6.17
2022-12-23T11:18:55.940Z,6.00
2022-12-23T11:24:16.394Z,5.63
2022-12-23T11:29:23.316Z,8.48
2022-12-23T11:34:27.192Z,7.45
2022-12-23T11:39:34.029Z,6.35
2022-12-23T11:44:41.597Z,7.82
2022-12-23T11:49:55.237Z,7.88
2022-12-23T11:55:02.264Z,7.60
2022-12-23T12:00:06.277Z,5.90
2022-12-23T12:05:25.894Z,7.10
2022-12-23T12:10:33.470Z,7.43
2022-12-23T12:15:54.542Z,7.53
2022-12-23T12:21:01.926Z,8.05
2022-12-23T12:26:13.090Z,10.27
2022-12-23T12:31:26.023Z,8.30
2022-12-23T12:36:46.125Z,5.13
2022-12-23T12:42:03.625Z,5.68
2022-12-23T12:47:36.120Z,4.53
2022-12-23T12:52:40.521Z,4.70
2022-12-23T12:57:43.405Z,4.97
2022-12-23T13:03:07.022Z,5.90
2022-12-23T13:08:23.896Z,5.05
2022-12-23T13:13:51.788Z,5.78
2022-12-23T13:19:00.357Z,4.18
2022-12-23T13:24:15.333Z,5.18
2022-12-23T13:29:41.183Z,4.53
2022-12-23T13:34:48.920Z,7.70
2022-12-23T13:40:28.863Z,4.75
2022-12-23T13:45:36.870Z,4.07
2022-12-23T13:51:01.745Z,3.20
2022-12-23T13:56:17.730Z,3.00
2022-12-23T14:01:34.142Z,3.33
2022-12-23T14:06:36.713Z,2.58
2022-12-23T14:11:38.609Z,2.83
2022-12-23T14:17:06.423Z,2.80
2022-12-23T14:22:33.284Z,3.45
2022-12-23T14:27:54.443Z,4.03
2022-12-23T14:33:02.868Z,3.65
2022-12-23T14:38:16.729Z,3.60
2022-12-23T14:43:45.788Z,3.78
2022-12-23T14:48:59.535Z,4.03
2022-12-23T14:54:14.330Z,4.53
2022-12-23T14:59:38.883Z,6.75
2022-12-23T15:10:00.768Z,7.78
2022-12-23T15:15:26.692Z,7.20
2022-12-23T15:20:28.559Z,5.40
2022-12-23T15:25:31.499Z,6.18
2022-12-23T15:30:37.290Z,8.30
2022-12-23T15:35:40.205Z,7.88
2022-12-23T15:40:42.101Z,7.28
2022-12-23T15:45:44.032Z,8.20
2022-12-23T15:50:46.244Z,8.18
2022-12-23T15:55:49.682Z,7.60
2022-12-23T16:00:51.376Z,7.27
2022-12-23T16:05:53.359Z,8.60
2022-12-23T16:11:13.482Z,10.00
2022-12-23T16:16:28.213Z,14.85
2022-12-23T16:21:36.407Z,16.15
2022-12-23T16:26:41.783Z,13.70
2022-12-23T16:31:51.043Z,15.52
2022-12-23T16:36:57.082Z,15.07
2022-12-23T16:41:58.789Z,15.32
2022-12-23T16:47:07.171Z,16.63
2022-12-23T16:52:14.095Z,20.20
2022-12-23T16:57:15.793Z,3.92
2022-12-23T17:02:22.955Z,2.20
2022-12-23T17:07:26.357Z,2.45
2022-12-23T17:12:28.079Z,1.45
2022-12-23T17:17:29.759Z,1.77
2022-12-23T17:22:33.719Z,2.10
2022-12-23T17:27:35.416Z,2.53
2022-12-23T17:32:37.130Z,2.90
2022-12-23T17:37:40.452Z,3.15
2022-12-23T17:42:42.573Z,2.80
2022-12-23T17:47:44.235Z,2.80
2022-12-23T17:52:45.920Z,2.83
2022-12-23T17:57:48.030Z,3.30
2022-12-23T18:02:51.326Z,3.45
2022-12-23T18:07:54.472Z,4.40
2022-12-23T18:12:59.110Z,3.95
2022-12-23T18:18:00.941Z,3.17
2022-12-23T18:23:03.076Z,3.97
2022-12-23T18:28:05.105Z,3.75
2022-12-23T18:33:09.993Z,3.28
2022-12-23T18:38:12.260Z,3.50
2022-12-23T18:43:19.728Z,3.67
2022-12-23T18:48:21.657Z,4.32
2022-12-23T18:53:25.386Z,3.38
2022-12-23T18:58:27.250Z,3.17
2022-12-23T19:03:31.287Z,3.30
2022-12-23T19:08:34.733Z,3.25
2022-12-23T19:13:36.538Z,3.20
2022-12-23T19:18:38.663Z,2.97
2022-12-23T19:23:41.460Z,3.30
2022-12-23T19:28:43.562Z,3.83
2022-12-23T19:33:46.790Z,3.45
2022-12-23T19:38:49.244Z,3.88
2022-12-23T19:43:50.909Z,3.83
2022-12-23T19:48:52.743Z,3.10
2022-12-23T19:53:54.549Z,2.88
2022-12-23T19:58:56.726Z,3.83
2022-12-23T20:03:58.530Z,3.55
2022-12-23T20:09:04.110Z,3.13
2022-12-23T20:14:07.143Z,3.53
2022-12-23T20:19:09.458Z,3.65
2022-12-23T20:24:11.387Z,2.92
2022-12-23T20:29:13.238Z,2.95
2022-12-23T20:34:17.131Z,3.03
2022-12-23T20:39:18.831Z,3.08
2022-12-23T20:44:37.270Z,3.03
2022-12-23T20:49:39.386Z,3.17
2022-12-23T20:54:41.134Z,3.10
2022-12-23T20:59:42.830Z,2.75
2022-12-23T21:04:44.625Z,2.35
2022-12-23T21:09:47.329Z,3.63
2022-12-23T21:14:50.077Z,4.00
2022-12-23T21:19:51.832Z,2.88
2022-12-23T21:24:53.529Z,3.42
2022-12-23T21:29:55.177Z,3.08
2022-12-23T21:34:56.929Z,3.17
2022-12-23T21:39:58.672Z,3.00
2022-12-23T21:45:00.311Z,3.83
2022-12-23T21:50:02.020Z,2.67
2022-12-23T21:55:04.004Z,2.83
2022-12-23T22:00:06.478Z,2.53
2022-12-23T22:05:08.441Z,3.22
2022-12-23T22:10:10.380Z,2.55
2022-12-23T22:15:12.291Z,3.05
2022-12-23T22:20:14.094Z,2.35
2022-12-23T22:25:15.954Z,2.88
2022-12-23T22:30:17.683Z,2.60
2022-12-23T22:35:19.449Z,3.28
2022-12-23T22:40:21.213Z,2.83
2022-12-23T22:45:22.995Z,3.25
2022-12-23T22:50:24.662Z,2.40
2022-12-23T22:55:26.530Z,2.53
2022-12-23T23:00:28.183Z,2.50
2022-12-23T23:05:29.904Z,2.40
2022-12-23T23:10:31.607Z,3.08
2022-12-23T23:15:33.267Z,3.25
2022-12-23T23:20:34.905Z,3.50
2022-12-23T23:25:36.640Z,3.00
2022-12-23T23:30:39.323Z,3.33
2022-12-23T23:35:41.026Z,3.55
2022-12-23T23:40:42.726Z,3.10
2022-12-23T23:45:44.518Z,3.53
2022-12-23T23:50:46.656Z,2.65
2022-12-23T23:55:48.286Z,3.30
